Time;durP1;ratioP1;P1;durP2;ratioP2;P2;SDS_P1;SDS_P2;PMS_P1;PMS_P2;Temp;Humidity;BMP_temperature;BMP_pressure;BME280_temperature;BME280_humidity;BME280_pressure;Samples;Min_cycle;Max_cycle;Signal;HPM_P1;HPM_P2
2020/06/27 00:00:23;;;;;;;5.2;4.7;;;;;;;;;;;;;
2020/06/27 00:02:50;;;;;;;4.9;4.5;;;;;;;;;;;;;
2020/06/27 00:05:15;;;;;;;6.2;4.4;;;;;;;;;;;;;
2020/06/27 00:07:40;;;;;;;5.2;4.2;;;;;;;;;;;;;
2020/06/27 00:10:05;;;;;;;5;4.4;;;;;;;;;;;;;
2020/06/27 00:12:32;;;;;;;5.8;4.6;;;;;;;;;;;;;
2020/06/27 00:14:57;;;;;;;5.7;5.2;;;;;;;;;;;;;
2020/06/27 00:17:22;;;;;;;5.8;5.2;;;;;;;;;;;;;
2020/06/27 00:19:47;;;;;;;9.4;5.9;;;;;;;;;;;;;
2020/06/27 00:22:13;;;;;;;5.8;5.3;;;;;;;;;;;;;
2020/06/27 00:24:39;;;;;;;5.6;5.1;;;;;;;;;;;;;
2020/06/27 00:27:04;;;;;;;6;4.7;;;;;;;;;;;;;
2020/06/27 00:29:29;;;;;;;7.2;4.7;;;;;;;;;;;;;
2020/06/27 00:31:54;;;;;;;5.4;4.6;;;;;;;;;;;;;
2020/06/27 00:34:19;;;;;;;5.1;4.6;;;;;;;;;;;;;
2020/06/27 00:36:44;;;;;;;5.2;4.6;;;;;;;;;;;;;
2020/06/27 00:39:10;;;;;;;6.6;4.4;;;;;;;;;;;;;
2020/06/27 00:41:35;;;;;;;5;4.5;;;;;;;;;;;;;
2020/06/27 00:44:00;;;;;;;5.8;5;;;;;;;;;;;;;
2020/06/27 00:46:25;;;;;;;5;4.5;;;;;;;;;;;;;
2020/06/27 00:48:50;;;;;;;6.5;4.7;;;;;;;;;;;;;
2020/06/27 00:51:15;;;;;;;5.7;4.4;;;;;;;;;;;;;
2020/06/27 00:53:41;;;;;;;4.3;3.9;;;;;;;;;;;;;
2020/06/27 00:56:06;;;;;;;5.2;4.4;;;;;;;;;;;;;
2020/06/27 00:58:31;;;;;;;5.5;4.7;;;;;;;;;;;;;
2020/06/27 01:00:58;;;;;;;7;4.6;;;;;;;;;;;;;
2020/06/27 01:03:24;;;;;;;5.3;4.6;;;;;;;;;;;;;
2020/06/27 01:05:49;;;;;;;4.6;4.2;;;;;;;;;;;;;
2020/06/27 01:08:14;;;;;;;5.2;4.3;;;;;;;;;;;;;
2020/06/27 01:10:39;;;;;;;5.8;4.4;;;;;;;;;;;;;
2020/06/27 01:13:04;;;;;;;5;3.9;;;;;;;;;;;;;
2020/06/27 01:15:29;;;;;;;5;3.9;;;;;;;;;;;;;
2020/06/27 01:17:57;;;;;;;4.7;4.3;;;;;;;;;;;;;
2020/06/27 01:20:22;;;;;;;5.1;4.1;;;;;;;;;;;;;
2020/06/27 01:22:47;;;;;;;4.6;4.2;;;;;;;;;;;;;
2020/06/27 01:25:12;;;;;;;4.4;4;;;;;;;;;;;;;
2020/06/27 01:27:38;;;;;;;4.5;4;;;;;;;;;;;;;
2020/06/27 01:30:03;;;;;;;4.2;3.8;;;;;;;;;;;;;
2020/06/27 01:32:29;;;;;;;4.6;4.2;;;;;;;;;;;;;
2020/06/27 01:34:54;;;;;;;5.8;3.9;;;;;;;;;;;;;
2020/06/27 01:37:20;;;;;;;4.8;3.7;;;;;;;;;;;;;
2020/06/27 01:39:45;;;;;;;4.6;4.1;;;;;;;;;;;;;
2020/06/27 01:42:11;;;;;;;6.8;4;;;;;;;;;;;;;
2020/06/27 01:44:36;;;;;;;7;4.5;;;;;;;;;;;;;
2020/06/27 01:47:02;;;;;;;6.2;4.2;;;;;;;;;;;;;
2020/06/27 01:49:27;;;;;;;4.7;4.2;;;;;;;;;;;;;
2020/06/27 01:51:53;;;;;;;4.3;3.9;;;;;;;;;;;;;
2020/06/27 01:54:18;;;;;;;4.5;3.9;;;;;;;;;;;;;
2020/06/27 01:56:44;;;;;;;4.5;4.1;;;;;;;;;;;;;
2020/06/27 01:59:09;;;;;;;4.2;3.8;;;;;;;;;;;;;
2020/06/27 02:01:37;;;;;;;6.1;4.1;;;;;;;;;;;;;
2020/06/27 02:04:01;;;;;;;5.1;4.1;;;;;;;;;;;;;
2020/06/27 02:06:27;;;;;;;4.2;3.8;;;;;;;;;;;;;
2020/06/27 02:08:52;;;;;;;4.4;4;;;;;;;;;;;;;
2020/06/27 02:11:18;;;;;;;5.5;4.3;;;;;;;;;;;;;
2020/06/27 02:13:44;;;;;;;5.8;4.6;;;;;;;;;;;;;
2020/06/27 02:16:10;;;;;;;5;4.5;;;;;;;;;;;;;
2020/06/27 02:18:35;;;;;;;4.9;4.4;;;;;;;;;;;;;
2020/06/27 02:21:01;;;;;;;5.6;4.5;;;;;;;;;;;;;
2020/06/27 02:23:26;;;;;;;4.9;4.4;;;;;;;;;;;;;
2020/06/27 02:25:52;;;;;;;4.8;3.9;;;;;;;;;;;;;
2020/06/27 02:28:18;;;;;;;4.7;4.2;;;;;;;;;;;;;
2020/06/27 02:30:45;;;;;;;4.8;4.2;;;;;;;;;;;;;
2020/06/27 02:33:10;;;;;;;4.9;4.1;;;;;;;;;;;;;
2020/06/27 02:35:35;;;;;;;4.6;4.2;;;;;;;;;;;;;
2020/06/27 02:38:01;;;;;;;5.7;4.5;;;;;;;;;;;;;
2020/06/27 02:40:26;;;;;;;5;3.9;;;;;;;;;;;;;
2020/06/27 02:42:52;;;;;;;4.6;4.1;;;;;;;;;;;;;
2020/06/27 02:45:20;;;;;;;7.7;4.6;;;;;;;;;;;;;
2020/06/27 02:47:45;;;;;;;6.2;5;;;;;;;;;;;;;
2020/06/27 02:50:11;;;;;;;5.8;4.3;;;;;;;;;;;;;
2020/06/27 02:52:36;;;;;;;6.3;4.5;;;;;;;;;;;;;
2020/06/27 02:55:01;;;;;;;7.3;4.7;;;;;;;;;;;;;
2020/06/27 02:57:26;;;;;;;6.1;4.8;;;;;;;;;;;;;
2020/06/27 02:59:51;;;;;;;5.5;4.9;;;;;;;;;;;;;
2020/06/27 03:02:16;;;;;;;5.7;5.1;;;;;;;;;;;;;
2020/06/27 03:04:42;;;;;;;5.6;5.1;;;;;;;;;;;;;
2020/06/27 03:07:07;;;;;;;7.4;5.2;;;;;;;;;;;;;
2020/06/27 03:09:34;;;;;;;5.4;4.9;;;;;;;;;;;;;
2020/06/27 03:11:59;;;;;;;7.6;4.7;;;;;;;;;;;;;
2020/06/27 03:14:25;;;;;;;6.3;4.5;;;;;;;;;;;;;
2020/06/27 03:16:50;;;;;;;4.8;4.3;;;;;;;;;;;;;
2020/06/27 03:19:16;;;;;;;8.8;4.5;;;;;;;;;;;;;
2020/06/27 03:21:41;;;;;;;4.6;4.2;;;;;;;;;;;;;
2020/06/27 03:24:07;;;;;;;7.3;4.6;;;;;;;;;;;;;
2020/06/27 03:26:32;;;;;;;4.9;4.5;;;;;;;;;;;;;
2020/06/27 03:28:58;;;;;;;7.6;4.2;;;;;;;;;;;;;
2020/06/27 03:31:23;;;;;;;5.1;4.5;;;;;;;;;;;;;
2020/06/27 03:33:50;;;;;;;5.3;4.8;;;;;;;;;;;;;
2020/06/27 03:36:15;;;;;;;6.1;5.1;;;;;;;;;;;;;
2020/06/27 03:38:42;;;;;;;6.7;4.9;;;;;;;;;;;;;
2020/06/27 03:41:07;;;;;;;5.7;5;;;;;;;;;;;;;
2020/06/27 03:43:32;;;;;;;7.1;5.4;;;;;;;;;;;;;
2020/06/27 03:45:57;;;;;;;7.1;5;;;;;;;;;;;;;
2020/06/27 03:48:22;;;;;;;7.6;4.8;;;;;;;;;;;;;
2020/06/27 03:50:48;;;;;;;7.7;5.4;;;;;;;;;;;;;
2020/06/27 03:53:13;;;;;;;7.7;5.5;;;;;;;;;;;;;
2020/06/27 03:55:39;;;;;;;6.8;5.5;;;;;;;;;;;;;
2020/06/27 03:58:04;;;;;;;6.4;5.4;;;;;;;;;;;;;
2020/06/27 04:02:31;;;;;;;6.6;4.8;;;;;;;15.49;90.98047;937.8661;;;;
2020/06/27 04:04:56;;;;;;;7.2;5.2;;;;;;;15.49;90.91113;937.8967;;;;
2020/06/27 04:07:22;;;;;;;5.5;4.8;;;;;;;15.57;90.58008;937.8975;;;;
2020/06/27 04:09:47;;;;;;;7.5;5;;;;;;;15.4;91.11035;937.9398;;;;
2020/06/27 04:12:13;;;;;;;8.2;4.9;;;;;;;15.42;91.14844;937.9728;;;;
2020/06/27 04:14:38;;;;;;;8.1;4.7;;;;;;;15.39;91.22363;937.9713;;;;
2020/06/27 04:17:05;;;;;;;7.5;5;;;;;;;15.27;92.41113;937.9146;;;;
2020/06/27 04:19:30;;;;;;;5.3;4.8;;;;;;;15.42;91.92383;937.9984;;;;
2020/06/27 04:21:56;;;;;;;7.1;4.6;;;;;;;15.58;91.30762;937.9448;;;;
2020/06/27 04:24:21;;;;;;;6;4.6;;;;;;;15.61;90.5293;937.9278;;;;
2020/06/27 04:26:47;;;;;;;7.7;4.7;;;;;;;15.66;90.63086;937.914;;;;
2020/06/27 04:29:12;;;;;;;5.8;4.5;;;;;;;15.62;90.38281;937.9305;;;;
2020/06/27 04:31:39;;;;;;;7;4.7;;;;;;;15.73;90.35742;937.9325;;;;
2020/06/27 04:34:04;;;;;;;6.6;4.6;;;;;;;15.89;89.66309;937.9752;;;;
2020/06/27 04:36:29;;;;;;;5.6;4.4;;;;;;;15.94;89.46387;937.9185;;;;
2020/06/27 04:38:55;;;;;;;7.7;4.4;;;;;;;16.01;89.1084;937.9207;;;;
2020/06/27 04:41:22;;;;;;;5.6;4.3;;;;;;;15.88;89.61426;937.9095;;;;
2020/06/27 04:43:47;;;;;;;7.2;4.7;;;;;;;15.86;90.09668;937.9595;;;;
2020/06/27 04:46:14;;;;;;;5.9;4.9;;;;;;;15.92;89.75098;938.0455;;;;
2020/06/27 04:48:39;;;;;;;7.5;4.9;;;;;;;15.86;89.87695;938.0471;;;;
2020/06/27 04:51:04;;;;;;;6.8;4.5;;;;;;;16.02;89.56152;937.9836;;;;
2020/06/27 04:53:29;;;;;;;5.2;4.7;;;;;;;16.05;89.33984;937.9671;;;;
2020/06/27 04:55:55;;;;;;;5.7;4.5;;;;;;;16.1;89.06934;937.969;;;;
2020/06/27 04:58:20;;;;;;;6.3;4.3;;;;;;;16.04;89.27832;938.0363;;;;
2020/06/27 05:00:47;;;;;;;7.7;4.5;;;;;;;16.05;89.63867;938.0089;;;;
2020/06/27 05:03:12;;;;;;;6.7;4.6;;;;;;;16.13;89.78418;937.9677;;;;
2020/06/27 05:05:38;;;;;;;5;3.6;;;;;;;16.64;90.40723;937.9892;;;;
2020/06/27 05:08:03;;;;;;;6;2.7;;;;;;;17.98;83.74902;938.0125;;;;
2020/06/27 05:10:33;;;;;;;5.6;2.9;;;;;;;19.3;76.34668;938.0188;;;;
2020/06/27 05:13:00;;;;;;;3.8;2.8;;;;;;;20.15;73.4248;938.0433;;;;
2020/06/27 05:15:27;;;;;;;4.6;2.5;;;;;;;20.86;70.69141;938.0111;;;;
2020/06/27 05:17:57;;;;;;;4.1;2.2;;;;;;;21.46;67.97656;937.9258;;;;
2020/06/27 05:20:25;;;;;;;2.5;2;;;;;;;22.41;64.54395;937.9705;;;;
2020/06/27 05:22:51;;;;;;;3;1.9;;;;;;;22.79;63.0498;938.0145;;;;
2020/06/27 05:25:19;;;;;;;3.2;2;;;;;;;23.6;60.62402;937.8865;;;;
2020/06/27 05:27:44;;;;;;;5;1.7;;;;;;;24.33;57.33008;937.9138;;;;
2020/06/27 05:30:13;;;;;;;3.1;1.9;;;;;;;24.5;56.64551;937.92;;;;
2020/06/27 05:32:38;;;;;;;3;1.8;;;;;;;24.66;56.71289;937.9448;;;;
2020/06/27 05:35:07;;;;;;;7.7;2;;;;;;;25.22;56.32324;937.9498;;;;
2020/06/27 05:37:32;;;;;;;6.5;2.1;;;;;;;25.81;54.58887;937.959;;;;
2020/06/27 05:40:01;;;;;;;2.1;1.6;;;;;;;26.08;52.62305;937.9277;;;;
2020/06/27 05:42:26;;;;;;;6.7;1.8;;;;;;;25.89;53.90137;938.0072;;;;
2020/06/27 05:44:54;;;;;;;2.1;1.8;;;;;;;25.75;55.33887;937.9511;;;;
2020/06/27 05:47:19;;;;;;;4.4;1.8;;;;;;;26.17;54.87012;937.9804;;;;
2020/06/27 05:49:47;;;;;;;5.8;1.8;;;;;;;26.61;50.32813;937.9372;;;;
2020/06/27 05:52:12;;;;;;;3.6;1.9;;;;;;;26.28;50.8125;937.9423;;;;
2020/06/27 05:54:40;;;;;;;6.8;1.8;;;;;;;25.97;51.20215;937.8893;;;;
2020/06/27 05:57:05;;;;;;;3.6;1.8;;;;;;;25.06;52.90332;937.8908;;;;
2020/06/27 05:59:31;;;;;;;6.3;2.3;;;;;;;25.42;52.48633;937.8956;;;;
2020/06/27 06:01:56;;;;;;;3;1.7;;;;;;;24.98;52.96484;937.8555;;;;
2020/06/27 06:04:23;;;;;;;2.9;1.6;;;;;;;25.34;54.28223;937.8582;;;;
2020/06/27 06:06:48;;;;;;;2.5;1.6;;;;;;;26.19;50.9082;937.9049;;;;
2020/06/27 06:09:15;;;;;;;5.1;1.6;;;;;;;25.85;52.73828;937.8672;;;;
2020/06/27 06:11:40;;;;;;;4.2;1.7;;;;;;;25.62;52.13184;937.8983;;;;
2020/06/27 06:14:07;;;;;;;3.4;1.8;;;;;;;25.48;54.26465;937.8622;;;;
2020/06/27 06:16:32;;;;;;;2.3;1.5;;;;;;;25.62;52.07129;937.8731;;;;
2020/06/27 06:18:57;;;;;;;4.9;1.5;;;;;;;26.56;49.20898;937.9039;;;;
2020/06/27 06:21:25;;;;;;;3;1.6;;;;;;;26.92;50.56543;937.8668;;;;
2020/06/27 06:23:52;;;;;;;2.4;1.6;;;;;;;26.67;48.66504;937.7905;;;;
2020/06/27 06:26:17;;;;;;;3.2;1.5;;;;;;;26.17;50.92969;937.8912;;;;
2020/06/27 06:28:42;;;;;;;2.1;1.6;;;;;;;26.33;50.33203;937.8631;;;;
2020/06/27 06:31:11;;;;;;;3;1.7;;;;;;;27.1;48.35547;937.8544;;;;
2020/06/27 06:33:36;;;;;;;3;1.5;;;;;;;27.56;47.89551;937.7919;;;;
2020/06/27 06:36:03;;;;;;;4.5;1.7;;;;;;;28.02;49.08496;937.8422;;;;
2020/06/27 06:38:28;;;;;;;12.2;2.1;;;;;;;29.42;45.40137;937.8002;;;;
2020/06/27 06:40:59;;;;;;;2.8;1.5;;;;;;;30.66;40.79297;937.7661;;;;
2020/06/27 06:43:26;;;;;;;4;1.5;;;;;;;31.7;40.30078;937.8017;;;;
2020/06/27 06:45:51;;;;;;;7.2;1.9;;;;;;;32.81;37.21777;937.7369;;;;
2020/06/27 06:48:17;;;;;;;5.3;1.7;;;;;;;32.52;37.36133;937.7383;;;;
2020/06/27 06:50:42;;;;;;;4.4;1.7;;;;;;;31.7;37.36621;937.731;;;;
2020/06/27 06:53:09;;;;;;;5.7;1.5;;;;;;;30.63;39.27344;937.6465;;;;
2020/06/27 06:55:34;;;;;;;4.7;1.6;;;;;;;30.81;39.15723;937.6282;;;;
2020/06/27 06:58:01;;;;;;;5;1.6;;;;;;;31.58;40.39746;937.7119;;;;
2020/06/27 07:00:32;;;;;;;4.2;1.6;;;;;;;32.78;37.21484;937.6686;;;;
2020/06/27 07:02:59;;;;;;;5.4;1.5;;;;;;;33.36;35.66309;937.6448;;;;
2020/06/27 07:05:27;;;;;;;4.5;1.3;;;;;;;32.65;36.60449;937.6713;;;;
2020/06/27 07:07:52;;;;;;;5.9;1.6;;;;;;;32.35;36.74805;937.6785;;;;
2020/06/27 07:10:17;;;;;;;2.1;1.4;;;;;;;31.33;38.2207;937.6567;;;;
2020/06/27 07:12:42;;;;;;;3.6;1.5;;;;;;;31.54;38.96875;937.6428;;;;
2020/06/27 07:15:07;;;;;;;2.8;1.5;;;;;;;31.13;38.80371;937.6342;;;;
2020/06/27 07:17:32;;;;;;;2.2;1.4;;;;;;;30.73;39.59277;937.6145;;;;
2020/06/27 07:19:58;;;;;;;2.8;1.6;;;;;;;29.72;43.04492;937.6062;;;;
2020/06/27 07:22:23;;;;;;;5.1;2;;;;;;;30.53;41.24805;937.5865;;;;
2020/06/27 07:24:49;;;;;;;2.5;1.6;;;;;;;30.18;40.80957;937.5514;;;;
2020/06/27 07:27:14;;;;;;;3.4;1.7;;;;;;;30.05;42.16992;937.5183;;;;
2020/06/27 07:29:40;;;;;;;4;1.7;;;;;;;27.5;46.54785;937.3975;;;;
2020/06/27 07:32:07;;;;;;;5.4;1.8;;;;;;;28.6;46.05566;937.4216;;;;
2020/06/27 07:34:32;;;;;;;4.4;1.6;;;;;;;30.43;40.9043;937.4323;;;;
2020/06/27 07:36:58;;;;;;;3.8;1.6;;;;;;;31.35;38.55762;937.41;;;;
2020/06/27 07:39:23;;;;;;;4.9;1.5;;;;;;;31.46;39.77637;937.402;;;;
2020/06/27 07:41:48;;;;;;;4.1;1.4;;;;;;;31.89;37.78906;937.3188;;;;
2020/06/27 07:44:15;;;;;;;4.4;1.7;;;;;;;32.66;35.8252;937.3166;;;;
2020/06/27 07:46:39;;;;;;;5.2;1.6;;;;;;;32.69;35.62402;937.3178;;;;
2020/06/27 07:49:05;;;;;;;2.4;1.4;;;;;;;31.56;36.91113;937.3038;;;;
2020/06/27 07:51:30;;;;;;;1.9;1.3;;;;;;;29.88;40.49707;937.2439;;;;
2020/06/27 07:53:55;;;;;;;3;1.5;;;;;;;30.27;41.33203;937.3212;;;;
2020/06/27 07:56:21;;;;;;;3.3;1.6;;;;;;;31.85;41.21289;937.3209;;;;
2020/06/27 07:58:48;;;;;;;7;1.8;;;;;;;31.75;40.3291;937.3546;;;;
2020/06/27 08:01:13;;;;;;;3;1.3;;;;;;;31.68;36.80078;937.3289;;;;
2020/06/27 08:03:38;;;;;;;2.2;1.4;;;;;;;32.53;39.11523;937.4558;;;;
2020/06/27 08:06:03;;;;;;;2.5;1.5;;;;;;;33.42;36.4502;937.4958;;;;
2020/06/27 08:08:30;;;;;;;4.6;1.7;;;;;;;33.27;33.24121;937.4814;;;;
2020/06/27 08:10:54;;;;;;;1.4;1.3;;;;;;;33.97;32.88379;937.488;;;;
2020/06/27 08:13:21;;;;;;;3.1;1.4;;;;;;;34.69;31.35547;937.5279;;;;
2020/06/27 08:15:46;;;;;;;3.1;1.3;;;;;;;34.47;30.6543;937.4839;;;;
2020/06/27 08:18:12;;;;;;;2.7;1.3;;;;;;;34.59;31.21582;937.5048;;;;
2020/06/27 08:20:38;;;;;;;3.7;1.3;;;;;;;33.95;33.71094;937.4813;;;;
2020/06/27 08:23:04;;;;;;;2.6;1.3;;;;;;;34.59;36.89355;937.5773;;;;
2020/06/27 08:25:29;;;;;;;2.6;1.3;;;;;;;35.31;30.75781;937.5877;;;;
2020/06/27 08:27:54;;;;;;;2.9;1.4;;;;;;;35.78;31.04297;937.5787;;;;
2020/06/27 08:30:24;;;;;;;2.8;1.3;;;;;;;35.03;31.4873;937.5694;;;;
2020/06/27 08:32:50;;;;;;;4;1.6;;;;;;;35.44;32.42188;937.6258;;;;
2020/06/27 08:35:15;;;;;;;4.7;1.5;;;;;;;36.49;32.71387;937.6122;;;;
2020/06/27 08:37:41;;;;;;;2.4;1.3;;;;;;;36.36;34.37402;937.5884;;;;
2020/06/27 08:40:06;;;;;;;2.6;1.4;;;;;;;36.06;30.21582;937.5845;;;;
2020/06/27 08:42:33;;;;;;;1.9;1.2;;;;;;;36.95;27.34277;937.6169;;;;
2020/06/27 08:44:58;;;;;;;1.8;1.4;;;;;;;35.75;33.39844;937.6545;;;;
2020/06/27 08:47:25;;;;;;;3;1.3;;;;;;;36.68;30.52344;937.679;;;;
2020/06/27 08:49:50;;;;;;;2.9;1.5;;;;;;;34.93;32.30078;937.6506;;;;
2020/06/27 08:52:17;;;;;;;8.3;1.6;;;;;;;33.55;38.87793;937.5822;;;;
2020/06/27 08:54:42;;;;;;;4.9;1.4;;;;;;;32.39;41.62109;937.5808;;;;
2020/06/27 08:57:08;;;;;;;5.3;1.6;;;;;;;32.16;43.87793;937.5784;;;;
2020/06/27 08:59:33;;;;;;;2.6;1.5;;;;;;;33.24;42.26465;937.6456;;;;
2020/06/27 09:02:00;;;;;;;2.6;1.7;;;;;;;34.08;40.22266;937.6451;;;;
2020/06/27 09:04:25;;;;;;;4.4;1.5;;;;;;;34.71;37.66211;937.6606;;;;
2020/06/27 09:06:52;;;;;;;3.8;1.6;;;;;;;35.08;38.75488;937.5989;;;;
2020/06/27 09:09:17;;;;;;;5.5;1.5;;;;;;;35.5;33.12598;937.5125;;;;
2020/06/27 09:11:45;;;;;;;2.4;1.4;;;;;;;35.56;32.69531;937.5236;;;;
2020/06/27 09:14:10;;;;;;;2.6;1.5;;;;;;;35.63;32.74902;937.4995;;;;
2020/06/27 09:16:35;;;;;;;4.9;1.5;;;;;;;35.47;34.12695;937.5341;;;;
2020/06/27 09:19:02;;;;;;;3.4;1.4;;;;;;;35.13;33.15918;937.4999;;;;
2020/06/27 09:21:27;;;;;;;5.9;1.7;;;;;;;34.4;34.39551;937.486;;;;
2020/06/27 09:23:54;;;;;;;1.7;1.4;;;;;;;34.46;34.00195;937.4683;;;;
2020/06/27 09:26:19;;;;;;;4.4;1.4;;;;;;;34.43;34.92773;937.4523;;;;
2020/06/27 09:28:47;;;;;;;10.3;1.6;;;;;;;34.52;35.45313;937.5144;;;;
2020/06/27 09:31:12;;;;;;;4.3;1.4;;;;;;;33.91;34.14258;937.4303;;;;
2020/06/27 09:33:37;;;;;;;3.6;1.8;;;;;;;33.75;34.33496;937.4372;;;;
2020/06/27 09:36:03;;;;;;;3.1;1.4;;;;;;;32.85;36.01953;937.4376;;;;
2020/06/27 09:38:28;;;;;;;3.6;1.5;;;;;;;32.85;37.41211;937.3978;;;;
2020/06/27 09:40:56;;;;;;;3.3;1.4;;;;;;;32.74;36.90039;937.3848;;;;
2020/06/27 09:43:21;;;;;;;3.1;1.5;;;;;;;32.77;38.11523;937.4016;;;;
2020/06/27 09:45:48;;;;;;;2.5;1.4;;;;;;;32.68;37.0625;937.3988;;;;
2020/06/27 09:48:13;;;;;;;2.7;1.7;;;;;;;32.42;35.35059;937.3745;;;;
2020/06/27 09:50:40;;;;;;;2.7;1.4;;;;;;;32.2;36.47168;937.4077;;;;
2020/06/27 09:53:05;;;;;;;4.3;1.5;;;;;;;31.67;37.69922;937.4258;;;;
2020/06/27 09:55:30;;;;;;;3.4;1.5;;;;;;;31.87;38.86523;937.4258;;;;
2020/06/27 09:57:55;;;;;;;2.7;1.6;;;;;;;31.87;37.02051;937.3655;;;;
2020/06/27 10:00:30;;;;;;;2.9;1.6;;;;;;;31.86;38.94922;937.3445;;;;
2020/06/27 10:02:58;;;;;;;2.8;1.7;;;;;;;31.89;37.5498;937.2947;;;;
2020/06/27 10:05:22;;;;;;;3;1.6;;;;;;;31.75;38.10156;937.2472;;;;
2020/06/27 10:07:51;;;;;;;2.3;1.5;;;;;;;31.77;38.77344;937.2592;;;;
2020/06/27 10:10:16;;;;;;;4.3;1.6;;;;;;;31.77;39.82813;937.2084;;;;
2020/06/27 10:12:45;;;;;;;3;1.6;;;;;;;31.61;41.11816;937.2034;;;;
2020/06/27 10:15:10;;;;;;;3.6;1.9;;;;;;;31.27;38.96973;937.2319;;;;
2020/06/27 10:17:37;;;;;;;3.9;1.7;;;;;;;31.17;40.64746;937.2048;;;;
2020/06/27 10:20:02;;;;;;;5;1.6;;;;;;;31.1;40.1875;937.1856;;;;
2020/06/27 10:22:30;;;;;;;3;1.6;;;;;;;30.91;39.97949;937.1674;;;;
2020/06/27 10:24:55;;;;;;;2.6;1.8;;;;;;;30.98;41.40918;937.1355;;;;
2020/06/27 10:27:20;;;;;;;4;1.7;;;;;;;31.14;42.02051;937.1267;;;;
2020/06/27 10:29:45;;;;;;;2.7;1.6;;;;;;;31.07;38.83301;937.0905;;;;
2020/06/27 10:32:11;;;;;;;2.2;1.6;;;;;;;30.9;39.15332;937.0388;;;;
2020/06/27 10:34:35;;;;;;;4;1.8;;;;;;;30.82;41.42871;937.0574;;;;
2020/06/27 10:37:01;;;;;;;2.1;1.7;;;;;;;30.49;41.00586;937.0602;;;;
2020/06/27 10:39:26;;;;;;;2.6;1.6;;;;;;;30.42;40.46191;937.0106;;;;
2020/06/27 10:41:51;;;;;;;3.6;1.7;;;;;;;30.52;38.90527;937.0067;;;;
2020/06/27 10:44:17;;;;;;;3.2;1.7;;;;;;;30.74;40.9209;936.9592;;;;
2020/06/27 10:46:42;;;;;;;3.7;1.6;;;;;;;31.05;39.8125;936.9708;;;;
2020/06/27 10:49:10;;;;;;;4.1;1.8;;;;;;;31.31;38.36328;936.9778;;;;
2020/06/27 10:51:40;;;;;;;3.3;1.6;;;;;;;31.42;40.47852;936.9785;;;;
2020/06/27 10:54:05;;;;;;;2.8;1.7;;;;;;;31.53;40.40527;936.9121;;;;
2020/06/27 10:56:30;;;;;;;4;1.7;;;;;;;31.54;38.45508;936.8801;;;;
2020/06/27 10:58:58;;;;;;;3;1.6;;;;;;;31.62;40.00586;936.8694;;;;
2020/06/27 11:01:23;;;;;;;2.8;1.8;;;;;;;31.74;39.57324;936.825;;;;
2020/06/27 11:03:51;;;;;;;3;1.8;;;;;;;31.73;38.8418;936.8336;;;;
2020/06/27 11:06:16;;;;;;;3.1;1.8;;;;;;;31.96;38.10547;936.8356;;;;
2020/06/27 11:08:42;;;;;;;3;1.8;;;;;;;32.19;40.2959;936.7525;;;;
2020/06/27 11:11:07;;;;;;;3.3;1.7;;;;;;;32.05;40.53516;936.6609;;;;
2020/06/27 11:13:34;;;;;;;3.4;1.7;;;;;;;32.32;38.25586;936.6834;;;;
2020/06/27 11:15:59;;;;;;;3.1;1.7;;;;;;;32.35;37.44336;936.5876;;;;
2020/06/27 11:18:25;;;;;;;4.4;1.6;;;;;;;32.11;40.06055;936.6358;;;;
2020/06/27 11:20:50;;;;;;;3.3;1.7;;;;;;;32.31;39.38281;936.6094;;;;
2020/06/27 11:23:17;;;;;;;3.2;1.8;;;;;;;32.56;37.68848;936.6122;;;;
2020/06/27 11:25:42;;;;;;;4.4;1.6;;;;;;;32.74;37.10449;936.5524;;;;
2020/06/27 11:28:08;;;;;;;2.8;1.7;;;;;;;32.8;35.3916;936.4745;;;;
2020/06/27 11:30:34;;;;;;;3.2;1.7;;;;;;;32.81;35.65723;936.5156;;;;
2020/06/27 11:33:01;;;;;;;3.2;1.9;;;;;;;32.9;38.49805;936.5172;;;;
2020/06/27 11:35:26;;;;;;;2.7;1.5;;;;;;;33.04;37.77637;936.5394;;;;
2020/06/27 11:37:52;;;;;;;2.8;1.7;;;;;;;33.02;38.00293;936.5011;;;;
2020/06/27 11:40:17;;;;;;;2.5;1.6;;;;;;;32.94;38.04492;936.5291;;;;
2020/06/27 11:42:42;;;;;;;2.7;1.6;;;;;;;32.34;37.8623;936.5236;;;;
2020/06/27 11:45:10;;;;;;;4.6;1.7;;;;;;;32.03;37.93262;936.4852;;;;
2020/06/27 11:47:35;;;;;;;4.8;1.9;;;;;;;31.87;40.92773;936.4689;;;;
2020/06/27 11:50:00;;;;;;;6.2;1.9;;;;;;;31.81;40.37012;936.5227;;;;
2020/06/27 11:52:25;;;;;;;3.2;1.8;;;;;;;31.86;39.97949;936.4774;;;;
2020/06/27 11:54:51;;;;;;;5.2;2;;;;;;;31.8;42.02246;936.4494;;;;
2020/06/27 11:57:16;;;;;;;4.5;1.7;;;;;;;31.78;40.63086;936.4899;;;;
2020/06/27 11:59:42;;;;;;;2.4;1.6;;;;;;;31.87;41.23828;936.4299;;;;
2020/06/27 12:02:07;;;;;;;2.6;1.8;;;;;;;31.83;41.01855;936.4517;;;;
2020/06/27 12:04:32;;;;;;;2.6;1.8;;;;;;;31.77;40.87012;936.3851;;;;
2020/06/27 12:06:57;;;;;;;3.6;1.9;;;;;;;31.77;42.29492;936.4077;;;;
2020/06/27 12:09:22;;;;;;;3.1;1.6;;;;;;;31.85;42.75781;936.3176;;;;
2020/06/27 12:11:47;;;;;;;2.4;1.9;;;;;;;31.81;41.08887;936.3383;;;;
2020/06/27 12:14:13;;;;;;;3.9;1.8;;;;;;;31.59;40.98535;936.2592;;;;
2020/06/27 12:16:38;;;;;;;3.1;1.6;;;;;;;31.56;41.28125;936.2368;;;;
2020/06/27 12:19:04;;;;;;;2.3;1.6;;;;;;;31.64;41.19336;936.1848;;;;
2020/06/27 12:21:29;;;;;;;1.9;1.5;;;;;;;31.71;42.02539;936.1431;;;;
2020/06/27 12:23:54;;;;;;;2.9;1.7;;;;;;;31.63;41.41992;936.1342;;;;
2020/06/27 12:26:21;;;;;;;3;1.6;;;;;;;31.84;42.6377;936.0941;;;;
2020/06/27 12:28:46;;;;;;;3;1.8;;;;;;;31.98;42.58984;936.0542;;;;
2020/06/27 12:31:14;;;;;;;4;1.7;;;;;;;31.53;40.45215;936.115;;;;
2020/06/27 12:33:39;;;;;;;2.7;1.7;;;;;;;31.45;41.04395;936.0592;;;;
2020/06/27 12:36:05;;;;;;;4.3;1.8;;;;;;;31.67;41.43457;936.0034;;;;
2020/06/27 12:38:30;;;;;;;3.4;1.7;;;;;;;31.61;41.08301;935.9431;;;;
2020/06/27 12:40:57;;;;;;;3;1.6;;;;;;;31.3;41.92871;935.9643;;;;
2020/06/27 12:43:22;;;;;;;3.2;1.6;;;;;;;31.41;42.69238;935.9919;;;;
2020/06/27 12:45:48;;;;;;;3.6;1.9;;;;;;;31.33;41.67969;935.942;;;;
2020/06/27 12:48:13;;;;;;;3.2;1.9;;;;;;;31.17;41.82031;935.9261;;;;
2020/06/27 12:50:40;;;;;;;2.2;1.7;;;;;;;31.26;42.17578;935.8834;;;;
2020/06/27 12:53:05;;;;;;;3.5;1.7;;;;;;;31.13;42.33203;935.946;;;;
2020/06/27 12:55:30;;;;;;;3.1;1.8;;;;;;;31.1;43.64355;935.8713;;;;
2020/06/27 12:57:55;;;;;;;2.8;1.8;;;;;;;31.13;44.19727;935.8131;;;;
2020/06/27 13:00:23;;;;;;;4.8;2.1;;;;;;;31.17;43.14746;935.8242;;;;
2020/06/27 13:02:48;;;;;;;4.9;1.8;;;;;;;31.16;41.90332;935.796;;;;
2020/06/27 13:05:13;;;;;;;2.8;1.9;;;;;;;31.24;42.97559;935.6753;;;;
2020/06/27 13:07:38;;;;;;;3.4;2.1;;;;;;;31.19;43.64063;935.6749;;;;
2020/06/27 13:10:04;;;;;;;5.2;1.9;;;;;;;31.12;42.46094;935.6674;;;;
2020/06/27 13:12:29;;;;;;;3.6;2;;;;;;;31.03;43.99609;935.6625;;;;
2020/06/27 13:14:55;;;;;;;3.3;1.8;;;;;;;30.86;42.86719;935.569;;;;
2020/06/27 13:17:20;;;;;;;3.6;1.9;;;;;;;30.98;42.84375;935.5513;;;;
2020/06/27 13:19:47;;;;;;;4;1.9;;;;;;;31.04;44.08105;935.5195;;;;
2020/06/27 13:22:12;;;;;;;3.2;1.9;;;;;;;31.09;42.60156;935.5851;;;;
2020/06/27 13:24:38;;;;;;;4.2;2.3;;;;;;;30.98;43.01074;935.4345;;;;
2020/06/27 13:27:03;;;;;;;3.7;1.9;;;;;;;30.97;44.0498;935.4528;;;;
2020/06/27 13:29:28;;;;;;;3.1;1.8;;;;;;;31;43.9209;935.4641;;;;
2020/06/27 13:31:54;;;;;;;4.3;1.6;;;;;;;31.13;42.35547;935.4478;;;;
2020/06/27 13:34:19;;;;;;;3.4;2.1;;;;;;;31.03;43.87695;935.3933;;;;
2020/06/27 13:36:46;;;;;;;2.8;2;;;;;;;30.96;42.6377;935.3674;;;;
2020/06/27 13:39:11;;;;;;;3.2;1.8;;;;;;;30.87;42.06836;935.3152;;;;
2020/06/27 13:41:38;;;;;;;3.6;1.8;;;;;;;30.73;43.05859;935.3834;;;;
2020/06/27 13:44:03;;;;;;;5;2;;;;;;;30.61;42.10254;935.2888;;;;
2020/06/27 13:46:30;;;;;;;4.1;2.1;;;;;;;30.62;42.31934;935.3427;;;;
2020/06/27 13:48:55;;;;;;;3.3;2.1;;;;;;;30.41;43.00488;935.3497;;;;
2020/06/27 13:51:21;;;;;;;4.4;2;;;;;;;30.26;42.62012;935.3663;;;;
2020/06/27 13:53:46;;;;;;;4.4;2.4;;;;;;;29.94;41.51563;935.3921;;;;
2020/06/27 13:56:12;;;;;;;3.7;2;;;;;;;29.63;42.82227;935.4359;;;;
2020/06/27 13:58:37;;;;;;;5.7;2;;;;;;;29.71;42.50879;935.4155;;;;
2020/06/27 14:01:04;;;;;;;8;2;;;;;;;29.99;42.78516;935.3669;;;;
2020/06/27 14:03:29;;;;;;;5.5;1.9;;;;;;;30.24;43.41797;935.3145;;;;
2020/06/27 14:05:55;;;;;;;3.3;1.6;;;;;;;30.53;42.66895;935.2215;;;;
2020/06/27 14:08:20;;;;;;;6.4;1.9;;;;;;;30.7;43.4502;935.1972;;;;
2020/06/27 14:10:48;;;;;;;4.7;1.6;;;;;;;30.63;40.89844;935.2235;;;;
2020/06/27 14:13:13;;;;;;;5;1.7;;;;;;;30.87;42.97656;935.2252;;;;
2020/06/27 14:15:39;;;;;;;4;1.9;;;;;;;30.95;40.65234;935.225;;;;
2020/06/27 14:18:03;;;;;;;4.3;1.4;;;;;;;30.36;41.30371;935.1828;;;;
2020/06/27 14:20:29;;;;;;;4.9;1.7;;;;;;;30.61;42.0791;935.205;;;;
2020/06/27 14:22:54;;;;;;;2.2;1.6;;;;;;;30.79;42.40625;935.2128;;;;
2020/06/27 14:25:20;;;;;;;4.4;1.7;;;;;;;30.57;39.9375;935.1182;;;;
2020/06/27 14:27:45;;;;;;;4.1;1.6;;;;;;;30.35;40.80176;935.1848;;;;
2020/06/27 14:30:16;;;;;;;3.8;1.6;;;;;;;30.36;40.25293;935.2255;;;;
2020/06/27 14:32:43;;;;;;;3.3;1.6;;;;;;;30.19;40.38086;935.1542;;;;
2020/06/27 14:35:08;;;;;;;3.7;1.7;;;;;;;30.25;40.61328;935.1445;;;;
2020/06/27 14:37:35;;;;;;;3.5;1.8;;;;;;;30.29;42.02539;935.1886;;;;
2020/06/27 14:40:00;;;;;;;5.4;1.7;;;;;;;30.17;40.91602;935.2267;;;;
2020/06/27 14:42:25;;;;;;;8.6;1.7;;;;;;;29.9;41.30957;935.2515;;;;
2020/06/27 14:44:50;;;;;;;6.7;2;;;;;;;29.66;40.16699;935.2062;;;;
2020/06/27 14:47:16;;;;;;;3.9;1.6;;;;;;;29.58;39.90918;935.253;;;;
2020/06/27 14:49:41;;;;;;;5.3;1.8;;;;;;;29.62;41.00977;935.2606;;;;
2020/06/27 14:52:06;;;;;;;4.8;1.9;;;;;;;29.32;41.07813;935.248;;;;
2020/06/27 14:54:32;;;;;;;5.2;1.8;;;;;;;29.53;41.97949;935.2647;;;;
2020/06/27 14:56:57;;;;;;;8.1;2;;;;;;;29.49;41.52246;935.3187;;;;
2020/06/27 14:59:23;;;;;;;3.1;1.6;;;;;;;29.57;42.00586;935.2192;;;;
2020/06/27 15:01:49;;;;;;;8.6;2.2;;;;;;;29.8;41.44336;935.2268;;;;
2020/06/27 15:04:14;;;;;;;7;1.8;;;;;;;29.86;42.36816;935.2024;;;;
2020/06/27 15:06:39;;;;;;;4.7;1.8;;;;;;;30;41.33008;935.1543;;;;
2020/06/27 15:09:04;;;;;;;4.5;1.8;;;;;;;30.03;41.96582;935.2125;;;;
2020/06/27 15:11:30;;;;;;;3.7;1.8;;;;;;;30.01;40.01953;935.187;;;;
2020/06/27 15:13:55;;;;;;;2.8;1.6;;;;;;;30.17;40.42773;935.1961;;;;
2020/06/27 15:16:24;;;;;;;3.3;1.7;;;;;;;30.3;41.68066;935.1563;;;;
2020/06/27 15:18:56;;;;;;;4.7;1.8;;;;;;;30.24;41.26855;935.1693;;;;
2020/06/27 15:21:15;;;;;;;3.9;2;;;;;;;30.31;41.53809;935.1526;;;;
2020/06/27 15:23:45;;;;;;;4.5;1.8;;;;;;;30.13;40.95996;935.1727;;;;
2020/06/27 15:26:06;;;;;;;4;1.7;;;;;;;30.02;42.19141;935.2234;;;;
2020/06/27 15:28:35;;;;;;;5.2;1.9;;;;;;;30.24;42.28418;935.2008;;;;
2020/06/27 15:31:00;;;;;;;3.7;1.7;;;;;;;30.36;41.69727;935.1302;;;;